Time;durP1;ratioP1;P1;durP2;ratioP2;P2;SDS_P1;SDS_P2;PMS_P1;PMS_P2;Temp;Humidity;BMP_temperature;BMP_pressure;BME280_temperature;BME280_humidity;BME280_pressure;Samples;Min_cycle;Max_cycle;Signal;HPM_P1;HPM_P2
2020/12/31 00:37:54;;;;;;;15.43;6.43;;;2.10;99.90;;;;;;5058981;23;20424;-76
2020/12/31 00:40:21;;;;;;;20.37;7.63;;;2.10;99.90;;;;;;5054911;28;20229;-76
2020/12/31 00:42:47;;;;;;;19.57;7.93;;;2.10;99.90;;;;;;5035956;28;20237;-76
2020/12/31 00:45:14;;;;;;;16.70;7.33;;;2.10;99.90;;;;;;5037157;28;20748;-76
2020/12/31 00:47:40;;;;;;;17.57;6.67;;;2.10;99.90;;;;;;5038051;28;20216;-77
2020/12/31 00:50:06;;;;;;;12.80;6.63;;;2.10;99.90;;;;;;5038837;28;20799;-74
2020/12/31 00:52:33;;;;;;;14.73;6.70;;;2.10;99.90;;;;;;5039963;28;20293;-76
2020/12/31 00:55:00;;;;;;;12.50;6.43;;;2.10;99.90;;;;;;5038673;28;20207;-76
2020/12/31 00:57:26;;;;;;;14.23;6.67;;;2.10;99.90;;;;;;5042400;28;20298;-75
2020/12/31 00:59:53;;;;;;;11.77;6.80;;;2.10;99.90;;;;;;5039221;28;20291;-76
2020/12/31 01:02:19;;;;;;;16.10;6.87;;;2.10;99.90;;;;;;5038780;28;20696;-76
2020/12/31 01:04:45;;;;;;;16.50;7.10;;;2.10;99.90;;;;;;5035975;28;20203;-75
2020/12/31 01:07:15;;;;;;;17.47;7.23;;;2.10;99.90;;;;;;5038909;28;20231;-76
2020/12/31 01:09:42;;;;;;;16.70;7.50;;;2.10;99.90;;;;;;5045215;28;20294;-76
2020/12/31 01:12:09;;;;;;;15.27;6.67;;;2.10;99.90;;;;;;5042782;28;21727;-75
2020/12/31 01:14:35;;;;;;;15.10;7.23;;;2.20;99.90;;;;;;5037444;28;20435;-76
2020/12/31 01:17:02;;;;;;;13.27;6.93;;;2.20;99.90;;;;;;5044106;28;20226;-76
2020/12/31 01:19:29;;;;;;;15.37;7.17;;;2.30;99.90;;;;;;5039374;28;20211;-76
2020/12/31 01:21:55;;;;;;;12.37;6.23;;;2.30;99.90;;;;;;5042996;28;20785;-76
2020/12/31 01:24:21;;;;;;;14.20;6.67;;;2.30;99.90;;;;;;5038601;28;20330;-76
2020/12/31 01:26:48;;;;;;;14.67;7.33;;;2.30;99.90;;;;;;5036863;28;20261;-75
2020/12/31 01:29:15;;;;;;;12.17;6.33;;;2.50;99.90;;;;;;5041700;28;20337;-74
2020/12/31 01:31:46;;;;;;;15.13;6.37;;;2.70;99.90;;;;;;5043229;28;20677;-75
2020/12/31 01:34:12;;;;;;;12.90;6.23;;;2.80;99.90;;;;;;5039474;28;20297;-76
2020/12/31 01:36:39;;;;;;;15.77;7.23;;;2.80;99.90;;;;;;5042000;28;20261;-76
2020/12/31 01:39:05;;;;;;;15.63;6.20;;;2.80;99.90;;;;;;5039867;28;20204;-76
2020/12/31 01:41:37;;;;;;;12.43;5.90;;;2.70;99.90;;;;;;5042777;28;20223;-75
2020/12/31 01:44:06;;;;;;;15.50;6.63;;;2.60;99.90;;;;;;5041240;28;20459;-75
2020/12/31 01:46:35;;;;;;;15.87;5.87;;;2.60;99.90;;;;;;5039704;28;20290;-76
2020/12/31 01:49:03;;;;;;;12.67;6.40;;;2.70;99.90;;;;;;5032501;28;20209;-76
2020/12/31 01:51:30;;;;;;;16.50;6.80;;;2.60;99.90;;;;;;5036296;28;20272;-76
2020/12/31 01:53:58;;;;;;;14.20;6.90;;;2.50;99.90;;;;;;5040015;28;20295;-76
2020/12/31 01:56:43;;;;;;;13.83;6.20;;;2.50;99.90;;;;;;5041998;28;20604;-76
2020/12/31 01:59:13;;;;;;;13.77;6.50;;;2.40;99.90;;;;;;5039038;28;20288;-77
2020/12/31 02:01:40;;;;;;;14.20;6.97;;;2.40;99.90;;;;;;5038780;28;20742;-77
2020/12/31 02:04:06;;;;;;;15.83;6.57;;;2.40;99.90;;;;;;5040395;28;20294;-76
2020/12/31 02:06:35;;;;;;;20.63;7.00;;;2.40;99.90;;;;;;5035471;28;20287;-76
2020/12/31 02:09:01;;;;;;;12.80;6.37;;;2.40;99.90;;;;;;5040211;28;20291;-77
2020/12/31 02:11:28;;;;;;;16.13;7.07;;;2.50;99.90;;;;;;5037916;28;20314;-76
2020/12/31 02:13:55;;;;;;;12.53;5.93;;;2.30;99.90;;;;;;5038247;28;20207;-76
2020/12/31 02:16:24;;;;;;;18.07;7.60;;;2.20;99.90;;;;;;5037083;28;20286;-77
2020/12/31 02:18:57;;;;;;;13.83;6.40;;;2.20;99.90;;;;;;5037438;28;20250;-76
2020/12/31 02:21:25;;;;;;;13.40;6.77;;;2.20;99.90;;;;;;5035514;28;20318;-74
2020/12/31 02:23:53;;;;;;;12.53;6.27;;;2.10;99.90;;;;;;5038816;28;20203;-77
2020/12/31 02:26:20;;;;;;;14.70;6.63;;;2.00;99.90;;;;;;5037706;28;20213;-77
2020/12/31 02:28:47;;;;;;;13.70;6.60;;;2.10;99.90;;;;;;5038438;28;20234;-77
2020/12/31 02:31:13;;;;;;;16.43;7.60;;;2.00;99.90;;;;;;5037142;28;20310;-77
2020/12/31 02:33:44;;;;;;;16.13;7.20;;;2.10;99.90;;;;;;5038382;28;20206;-76
2020/12/31 02:36:11;;;;;;;17.83;7.60;;;2.10;99.90;;;;;;5032713;28;20268;-76
2020/12/31 02:38:38;;;;;;;15.87;6.63;;;2.20;99.90;;;;;;5037951;28;20206;-77
2020/12/31 02:41:05;;;;;;;14.00;6.77;;;2.20;99.90;;;;;;5038462;28;20309;-75
2020/12/31 02:43:32;;;;;;;16.70;7.10;;;2.30;99.90;;;;;;5037643;28;20195;-74
2020/12/31 02:45:58;;;;;;;18.03;7.03;;;2.30;99.90;;;;;;5034155;28;20222;-75
2020/12/31 02:48:25;;;;;;;17.47;7.50;;;2.40;99.90;;;;;;5036613;28;20291;-75
2020/12/31 02:50:51;;;;;;;17.27;6.93;;;2.30;99.90;;;;;;5034122;28;20230;-75
2020/12/31 02:53:18;;;;;;;14.67;7.17;;;2.40;99.90;;;;;;5038336;28;20262;-75
2020/12/31 02:55:44;;;;;;;14.83;6.30;;;2.40;99.90;;;;;;5039225;28;20238;-75
2020/12/31 02:58:11;;;;;;;12.50;6.47;;;2.30;99.90;;;;;;5041450;28;20258;-77
2020/12/31 03:00:38;;;;;;;14.93;6.80;;;2.20;99.90;;;;;;5036189;28;20754;-76
2020/12/31 03:03:04;;;;;;;12.57;6.50;;;2.20;99.90;;;;;;5036377;28;20889;-77
2020/12/31 03:05:31;;;;;;;15.20;6.63;;;2.10;99.90;;;;;;5037058;28;20241;-72
2020/12/31 03:07:57;;;;;;;13.67;6.70;;;2.10;99.90;;;;;;5035059;28;20310;-76
2020/12/31 03:10:24;;;;;;;13.90;6.57;;;2.10;99.90;;;;;;5033991;28;20256;-76
2020/12/31 03:12:50;;;;;;;16.93;6.70;;;2.00;99.90;;;;;;5037011;28;20211;-73
2020/12/31 03:15:19;;;;;;;17.93;6.53;;;2.00;99.90;;;;;;5034447;28;20577;-75
2020/12/31 03:17:46;;;;;;;18.93;7.50;;;1.90;99.90;;;;;;5034657;28;20206;-74
2020/12/31 03:20:12;;;;;;;15.80;6.97;;;1.90;99.90;;;;;;5032967;28;20636;-76
2020/12/31 03:22:39;;;;;;;15.40;7.00;;;1.90;99.90;;;;;;5033010;28;20660;-77
2020/12/31 03:25:06;;;;;;;16.17;7.30;;;1.90;99.90;;;;;;5033758;28;20204;-76
2020/12/31 03:27:33;;;;;;;16.40;6.77;;;1.90;99.90;;;;;;5034796;28;20219;-77
2020/12/31 03:29:59;;;;;;;19.53;8.00;;;1.90;99.90;;;;;;5034573;28;20405;-76
2020/12/31 03:32:26;;;;;;;16.90;7.40;;;2.00;99.90;;;;;;5034541;28;20305;-75
2020/12/31 03:34:53;;;;;;;20.93;7.73;;;2.00;99.90;;;;;;5030794;28;20196;-77
2020/12/31 03:37:19;;;;;;;18.33;8.20;;;2.00;99.90;;;;;;5033827;28;20310;-76
2020/12/31 03:39:46;;;;;;;17.53;7.97;;;2.00;99.90;;;;;;5034520;28;20203;-76
2020/12/31 03:42:12;;;;;;;15.63;6.87;;;2.00;99.90;;;;;;5034104;28;20721;-75
2020/12/31 03:44:38;;;;;;;14.97;6.70;;;2.00;99.90;;;;;;5036739;28;20297;-75
2020/12/31 03:47:05;;;;;;;13.77;6.73;;;2.00;99.90;;;;;;5032743;28;20567;-76
2020/12/31 03:49:32;;;;;;;16.47;7.27;;;2.00;99.90;;;;;;5034226;28;20299;-77
2020/12/31 03:51:58;;;;;;;14.50;7.07;;;2.00;99.90;;;;;;5039035;28;20325;-76
2020/12/31 03:54:25;;;;;;;12.90;6.27;;;2.00;99.90;;;;;;5038834;28;20625;-77
2020/12/31 03:56:51;;;;;;;15.13;6.93;;;2.00;99.90;;;;;;5037964;28;20208;-77
2020/12/31 03:59:17;;;;;;;14.57;6.50;;;2.00;99.90;;;;;;5041349;28;20270;-76
2020/12/31 04:01:45;;;;;;;15.07;6.63;;;2.00;99.90;;;;;;5038219;28;20260;-77
2020/12/31 04:04:12;;;;;;;16.87;7.37;;;2.00;99.90;;;;;;5038170;28;20200;-77
2020/12/31 04:06:39;;;;;;;14.47;7.40;;;2.00;99.90;;;;;;5037872;28;20997;-77
2020/12/31 04:09:06;;;;;;;16.87;7.53;;;2.00;99.90;;;;;;5039119;28;20294;-77
2020/12/31 04:11:32;;;;;;;14.80;6.60;;;2.10;99.90;;;;;;5040204;28;20326;-77
2020/12/31 04:13:58;;;;;;;15.63;7.33;;;2.10;99.90;;;;;;5039590;28;20298;-77
2020/12/31 04:16:25;;;;;;;14.53;7.13;;;2.10;99.90;;;;;;5034503;28;20208;-76
2020/12/31 04:18:51;;;;;;;14.83;6.63;;;2.10;99.90;;;;;;5038626;28;20579;-76
2020/12/31 04:21:21;;;;;;;14.93;7.13;;;2.10;99.90;;;;;;5037995;28;20317;-75
2020/12/31 04:23:49;;;;;;;16.97;7.10;;;2.20;99.90;;;;;;5037720;28;20695;-75
2020/12/31 04:26:16;;;;;;;17.43;8.13;;;2.20;99.90;;;;;;5040788;28;20200;-75
2020/12/31 04:28:42;;;;;;;17.93;7.57;;;2.20;99.90;;;;;;5035538;28;20230;-75
2020/12/31 04:31:09;;;;;;;16.93;7.37;;;2.20;99.90;;;;;;5034141;28;20690;-74
2020/12/31 04:33:35;;;;;;;17.57;7.80;;;2.20;99.90;;;;;;5039974;28;20303;-75
2020/12/31 04:36:01;;;;;;;16.07;7.53;;;2.20;99.90;;;;;;5039638;28;20195;-76
2020/12/31 04:38:28;;;;;;;19.37;8.30;;;2.20;99.90;;;;;;5039841;28;20289;-75
2020/12/31 04:40:55;;;;;;;17.83;8.43;;;2.20;99.90;;;;;;5042447;28;20218;-75
2020/12/31 04:43:22;;;;;;;18.33;8.20;;;2.30;99.90;;;;;;5039155;28;20654;-75
2020/12/31 04:45:49;;;;;;;17.97;8.83;;;2.30;99.90;;;;;;5038563;28;20750;-76
2020/12/31 04:48:25;;;;;;;19.53;8.57;;;2.30;99.90;;;;;;5041008;28;20356;-78
2020/12/31 04:50:57;;;;;;;17.73;8.20;;;2.30;99.90;;;;;;5041292;28;20223;-75
2020/12/31 04:53:25;;;;;;;19.10;8.70;;;2.20;99.90;;;;;;5038492;28;20200;-75
2020/12/31 04:55:52;;;;;;;18.33;9.13;;;2.30;99.90;;;;;;5039219;28;20287;-78
2020/12/31 04:58:19;;;;;;;14.67;8.17;;;2.30;99.90;;;;;;5038805;28;20206;-76
2020/12/31 05:00:46;;;;;;;20.63;9.40;;;2.30;99.90;;;;;;5039193;28;20691;-77
2020/12/31 05:03:13;;;;;;;14.87;7.83;;;2.40;99.90;;;;;;5040617;28;20199;-76
2020/12/31 05:05:39;;;;;;;19.10;9.33;;;2.40;99.90;;;;;;5040463;28;20207;-76
2020/12/31 05:08:07;;;;;;;20.00;9.83;;;2.40;99.90;;;;;;5040074;28;20696;-77
2020/12/31 05:10:34;;;;;;;18.00;9.00;;;2.30;99.90;;;;;;5038266;28;20359;-76
2020/12/31 05:13:01;;;;;;;17.60;9.40;;;2.40;99.90;;;;;;5036814;28;20334;-76
2020/12/31 05:15:35;;;;;;;17.43;9.07;;;2.30;99.90;;;;;;5032828;28;24087;-77
2020/12/31 05:18:21;;;;;;;20.70;9.30;;;2.30;99.90;;;;;;5040687;28;20705;-76
2020/12/31 05:20:49;;;;;;;19.27;8.93;;;2.30;99.90;;;;;;5035429;28;20243;-76
2020/12/31 05:23:16;;;;;;;19.87;9.13;;;2.30;99.90;;;;;;5041234;28;20207;-75
2020/12/31 05:25:43;;;;;;;17.13;8.87;;;2.30;99.90;;;;;;5040372;28;20290;-77
2020/12/31 05:28:27;;;;;;;17.80;8.97;;;2.30;99.90;;;;;;5036707;28;20840;-77
2020/12/31 05:30:55;;;;;;;19.23;9.93;;;2.30;99.90;;;;;;5037228;28;20238;-77
2020/12/31 05:33:30;;;;;;;19.50;9.00;;;2.30;99.90;;;;;;5040135;28;20242;-76
2020/12/31 05:36:17;;;;;;;19.47;9.33;;;2.20;99.90;;;;;;5038772;28;20234;-77
2020/12/31 05:39:01;;;;;;;19.80;9.13;;;2.20;99.90;;;;;;5041371;28;20290;-75
2020/12/31 05:41:30;;;;;;;21.03;9.27;;;2.20;99.90;;;;;;5039703;28;20241;-77
2020/12/31 05:43:57;;;;;;;20.90;9.37;;;2.20;99.90;;;;;;5035833;28;20245;-76
2020/12/31 05:46:26;;;;;;;20.53;9.53;;;2.20;99.90;;;;;;5035122;28;20482;-76
2020/12/31 05:48:56;;;;;;;18.97;9.57;;;2.30;99.90;;;;;;5034606;28;20290;-76
2020/12/31 05:51:29;;;;;;;20.73;9.47;;;2.20;99.90;;;;;;5036427;28;20637;-76
2020/12/31 05:54:06;;;;;;;17.37;9.33;;;2.10;99.90;;;;;;5037969;28;20210;-76
2020/12/31 05:56:34;;;;;;;24.73;10.10;;;2.10;99.90;;;;;;5038923;28;20218;-76
2020/12/31 05:59:07;;;;;;;19.30;9.93;;;2.10;99.90;;;;;;5037384;28;20199;-76
2020/12/31 06:01:36;;;;;;;23.17;9.70;;;2.00;99.90;;;;;;5037035;28;20223;-77
2020/12/31 06:04:18;;;;;;;20.50;9.70;;;2.00;99.90;;;;;;5036906;28;20207;-76
2020/12/31 06:06:49;;;;;;;21.17;10.33;;;2.00;99.90;;;;;;5033470;28;20275;-76
2020/12/31 06:09:26;;;;;;;22.07;10.97;;;2.00;99.90;;;;;;5033719;28;20211;-76
2020/12/31 06:11:57;;;;;;;24.43;10.70;;;1.90;99.90;;;;;;5035360;28;20254;-76
2020/12/31 06:14:26;;;;;;;24.70;11.13;;;1.80;99.90;;;;;;5034722;28;20697;-76
2020/12/31 06:16:56;;;;;;;22.43;10.70;;;1.80;99.90;;;;;;5035443;28;20200;-76
2020/12/31 06:19:31;;;;;;;22.50;10.93;;;1.80;99.90;;;;;;5039938;28;20202;-75
2020/12/31 06:22:03;;;;;;;21.90;10.90;;;1.70;99.90;;;;;;5042343;28;20286;-77
2020/12/31 06:24:33;;;;;;;22.83;10.60;;;1.80;99.90;;;;;;5039405;28;21499;-76
2020/12/31 06:27:05;;;;;;;25.67;11.43;;;1.70;99.90;;;;;;5033660;28;20845;-76
2020/12/31 06:29:38;;;;;;;23.47;10.30;;;1.70;99.90;;;;;;5034790;28;20209;-76
2020/12/31 06:32:13;;;;;;;20.43;9.30;;;1.70;99.90;;;;;;5036528;28;20215;-76
2020/12/31 06:34:40;;;;;;;21.17;9.70;;;1.70;99.90;;;;;;5039593;28;20206;-76
2020/12/31 06:37:11;;;;;;;22.90;10.73;;;1.70;99.90;;;;;;5051180;22;20285;-71
2020/12/31 06:39:39;;;;;;;23.10;10.73;;;1.70;99.90;;;;;;5031742;28;20696;-71
2020/12/31 06:42:05;;;;;;;20.53;10.10;;;1.60;99.90;;;;;;5029651;28;20492;-71
2020/12/31 06:44:32;;;;;;;21.87;10.17;;;1.60;99.90;;;;;;5028896;28;20557;-71
2020/12/31 06:46:59;;;;;;;29.07;11.30;;;1.60;99.90;;;;;;5030024;28;20220;-71
2020/12/31 06:49:51;;;;;;;21.37;9.60;;;1.50;99.90;;;;;;5030270;28;20198;-71
2020/12/31 06:52:22;;;;;;;19.40;9.17;;;1.60;99.90;;;;;;5029724;28;20223;-71
2020/12/31 06:54:49;;;;;;;18.47;9.17;;;1.50;99.90;;;;;;5029356;28;20487;-72
2020/12/31 06:57:36;;;;;;;20.13;8.60;;;1.60;99.90;;;;;;5037417;28;20464;-71
2020/12/31 07:00:03;;;;;;;21.37;10.00;;;1.60;99.90;;;;;;5043954;28;20823;-71
2020/12/31 07:02:29;;;;;;;20.93;9.43;;;1.50;99.90;;;;;;5034021;28;20595;-71
2020/12/31 07:04:57;;;;;;;20.63;9.77;;;1.50;99.90;;;;;;5029292;28;20294;-70
2020/12/31 07:07:28;;;;;;;21.07;8.90;;;1.50;99.90;;;;;;5027011;28;20224;-71
2020/12/31 07:09:56;;;;;;;20.73;9.27;;;1.50;99.90;;;;;;5028441;28;20261;-71
2020/12/31 07:12:33;;;;;;;18.67;8.90;;;1.50;99.90;;;;;;5030017;28;20332;-71
2020/12/31 07:14:59;;;;;;;18.57;9.37;;;1.50;99.90;;;;;;5027680;28;20738;-71
2020/12/31 07:17:33;;;;;;;19.37;8.77;;;1.50;99.90;;;;;;5029895;28;20217;-72
2020/12/31 07:20:01;;;;;;;19.67;9.20;;;1.50;99.90;;;;;;5030058;28;20206;-72
2020/12/31 07:22:29;;;;;;;18.90;8.70;;;1.40;99.90;;;;;;5026213;28;20338;-72
2020/12/31 07:24:57;;;;;;;20.40;8.93;;;1.50;99.90;;;;;;5029843;28;20203;-73
2020/12/31 07:27:29;;;;;;;17.53;9.00;;;1.50;99.90;;;;;;5029315;28;20579;-71
2020/12/31 07:30:01;;;;;;;16.27;8.03;;;1.50;99.90;;;;;;5031778;28;20356;-72
2020/12/31 07:32:50;;;;;;;18.87;8.47;;;1.50;99.90;;;;;;5036299;28;20739;-72
2020/12/31 07:35:21;;;;;;;18.87;8.20;;;1.60;99.90;;;;;;5030720;28;20221;-72
2020/12/31 07:37:51;;;;;;;17.83;8.27;;;1.60;99.90;;;;;;5033333;28;20694;-72
2020/12/31 07:40:30;;;;;;;21.53;9.40;;;1.60;99.90;;;;;;5030677;28;20261;-72
2020/12/31 07:42:57;;;;;;;15.17;7.47;;;1.50;99.90;;;;;;5030682;28;20725;-72
2020/12/31 07:45:23;;;;;;;13.37;6.87;;;1.50;99.90;;;;;;5027067;28;21276;-72
2020/12/31 07:47:50;;;;;;;14.30;7.00;;;1.50;99.90;;;;;;5027707;28;20796;-72
2020/12/31 07:50:17;;;;;;;17.57;8.63;;;1.50;99.90;;;;;;5025316;28;20465;-72
2020/12/31 07:52:44;;;;;;;19.17;8.60;;;1.50;99.90;;;;;;5031006;28;20208;-72
2020/12/31 07:55:11;;;;;;;16.33;7.67;;;1.50;99.90;;;;;;5027018;28;20199;-72
2020/12/31 07:57:38;;;;;;;18.10;8.53;;;1.50;99.90;;;;;;5032618;28;20192;-72
2020/12/31 08:00:08;;;;;;;17.67;8.43;;;1.50;99.90;;;;;;5034586;28;20195;-72
2020/12/31 08:02:35;;;;;;;16.83;8.27;;;1.50;99.90;;;;;;5035728;28;20202;-72
2020/12/31 08:05:11;;;;;;;18.13;8.27;;;1.50;99.90;;;;;;5033266;28;20221;-72
2020/12/31 08:07:39;;;;;;;15.23;7.03;;;1.50;99.90;;;;;;5033484;28;20226;-73
2020/12/31 08:10:06;;;;;;;13.83;7.03;;;1.50;99.90;;;;;;5040203;28;20207;-72
2020/12/31 08:12:33;;;;;;;17.73;7.70;;;1.50;99.90;;;;;;5030643;28;20592;-71
2020/12/31 08:15:00;;;;;;;13.80;7.30;;;1.50;99.90;;;;;;5030565;28;20668;-71
2020/12/31 08:17:26;;;;;;;11.87;6.30;;;1.50;99.90;;;;;;5027948;28;20938;-72
2020/12/31 08:19:53;;;;;;;12.23;6.27;;;1.50;99.90;;;;;;5033304;28;20299;-72
2020/12/31 08:22:25;;;;;;;14.97;7.17;;;1.50;99.90;;;;;;5032113;28;20711;-72
2020/12/31 08:24:59;;;;;;;15.57;6.43;;;1.60;99.90;;;;;;5028345;28;20668;-72
2020/12/31 08:27:28;;;;;;;9.93;5.27;;;1.60;99.90;;;;;;5027010;28;20841;-71
2020/12/31 08:29:57;;;;;;;17.33;8.00;;;1.60;99.90;;;;;;5029922;28;20204;-71
2020/12/31 08:32:26;;;;;;;15.00;6.67;;;1.60;99.90;;;;;;5032343;28;20227;-70
2020/12/31 08:34:55;;;;;;;13.43;7.17;;;1.60;99.90;;;;;;5028757;28;21361;-72
2020/12/31 08:37:23;;;;;;;14.20;6.17;;;1.60;99.90;;;;;;5020479;28;20681;-72
2020/12/31 08:39:51;;;;;;;10.83;5.53;;;1.60;99.90;;;;;;5026459;28;20489;-73
2020/12/31 08:42:19;;;;;;;11.87;6.07;;;1.60;99.90;;;;;;5020271;28;20227;-71
2020/12/31 08:44:53;;;;;;;12.47;5.73;;;1.60;99.90;;;;;;5028761;28;20207;-72
2020/12/31 08:47:21;;;;;;;11.40;5.77;;;1.60;99.90;;;;;;5029676;28;20277;-71
2020/12/31 08:49:52;;;;;;;9.33;5.20;;;1.70;99.90;;;;;;5034483;28;20291;-71
2020/12/31 08:52:18;;;;;;;11.33;5.53;;;1.70;99.90;;;;;;5031188;28;20224;-72
2020/12/31 08:54:45;;;;;;;11.57;6.00;;;1.70;99.90;;;;;;5027855;28;20579;-71
2020/12/31 08:57:15;;;;;;;11.40;6.20;;;1.80;99.90;;;;;;5026863;28;20294;-72
2020/12/31 08:59:42;;;;;;;10.30;5.40;;;1.80;99.90;;;;;;5028802;28;20226;-72
2020/12/31 09:02:12;;;;;;;13.20;5.83;;;1.90;99.90;;;;;;5030750;28;20761;-71
2020/12/31 09:04:38;;;;;;;13.07;6.20;;;1.90;99.90;;;;;;5029425;28;20581;-72
2020/12/31 09:07:10;;;;;;;10.47;5.43;;;2.00;99.90;;;;;;5027144;28;20519;-71
2020/12/31 09:09:37;;;;;;;10.77;5.13;;;2.10;99.90;;;;;;5027993;28;20310;-72
2020/12/31 09:12:05;;;;;;;8.93;4.73;;;2.20;99.90;;;;;;5026907;28;20225;-71
2020/12/31 09:14:32;;;;;;;12.43;5.17;;;2.30;99.90;;;;;;5028901;28;20633;-72
2020/12/31 09:16:59;;;;;;;8.23;4.93;;;2.40;99.90;;;;;;5028389;28;20599;-71
2020/12/31 09:19:27;;;;;;;8.83;4.77;;;2.50;99.90;;;;;;5036895;28;20219;-72
2020/12/31 09:21:53;;;;;;;12.50;4.70;;;2.60;99.90;;;;;;5035210;28;20223;-72
2020/12/31 09:24:21;;;;;;;9.80;4.37;;;2.60;99.90;;;;;;5030021;28;20333;-71
2020/12/31 09:26:57;;;;;;;7.37;3.80;;;2.70;99.90;;;;;;5022036;28;20207;-71
2020/12/31 09:29:24;;;;;;;7.13;3.70;;;2.70;99.90;;;;;;5013394;28;20235;-72
2020/12/31 09:31:51;;;;;;;8.83;3.90;;;2.60;99.90;;;;;;5012352;28;20229;-73
2020/12/31 09:34:18;;;;;;;6.03;3.77;;;2.60;99.90;;;;;;5003524;28;20318;-72
2020/12/31 09:36:45;;;;;;;6.77;3.73;;;2.70;99.90;;;;;;5014043;28;20589;-72
2020/12/31 09:39:12;;;;;;;8.27;3.83;;;2.60;99.90;;;;;;5020740;28;20298;-72
2020/12/31 09:41:38;;;;;;;10.37;3.83;;;2.60;99.90;;;;;;5015451;28;21061;-72
2020/12/31 09:44:05;;;;;;;6.30;3.73;;;2.60;99.90;;;;;;5019484;28;20207;-71
2020/12/31 09:46:32;;;;;;;7.93;3.70;;;2.60;99.90;;;;;;5019564;28;20209;-72
2020/12/31 09:48:58;;;;;;;8.47;3.60;;;2.70;99.90;;;;;;5017075;28;20331;-71
2020/12/31 09:51:24;;;;;;;8.00;3.90;;;2.70;99.90;;;;;;5017164;28;20226;-71
2020/12/31 09:53:52;;;;;;;7.13;3.97;;;2.90;99.90;;;;;;5018141;28;20294;-72
2020/12/31 09:56:18;;;;;;;7.03;4.23;;;2.80;99.90;;;;;;5019785;28;20566;-73
2020/12/31 09:58:45;;;;;;;11.60;4.53;;;2.70;99.90;;;;;;5017917;28;20209;-72
2020/12/31 10:01:12;;;;;;;6.87;3.77;;;2.80;99.90;;;;;;5023391;28;20787;-71
2020/12/31 10:03:38;;;;;;;7.57;4.27;;;2.70;99.90;;;;;;5020200;28;20203;-72
2020/12/31 10:06:06;;;;;;;7.80;4.10;;;2.70;99.90;;;;;;5019385;28;20222;-73
2020/12/31 10:08:33;;;;;;;7.17;4.37;;;2.70;99.90;;;;;;5019834;28;20296;-72
2020/12/31 10:11:01;;;;;;;8.77;4.37;;;2.60;99.90;;;;;;5018504;28;20227;-72
2020/12/31 10:13:27;;;;;;;8.87;4.73;;;2.60;99.90;;;;;;5021353;28;20203;-72
2020/12/31 10:15:53;;;;;;;8.93;4.87;;;2.60;99.90;;;;;;5021081;28;20203;-72
2020/12/31 10:18:20;;;;;;;10.23;5.40;;;2.50;99.90;;;;;;5019946;28;20191;-73
2020/12/31 10:20:46;;;;;;;8.90;4.83;;;2.50;99.90;;;;;;5022331;28;20227;-73
2020/12/31 10:23:12;;;;;;;7.60;4.47;;;2.40;99.90;;;;;;5018458;28;20238;-72
2020/12/31 10:25:39;;;;;;;9.17;5.10;;;2.40;99.90;;;;;;5022778;28;20285;-72
2020/12/31 10:28:06;;;;;;;12.87;5.83;;;2.30;99.90;;;;;;5023671;28;20223;-72
2020/12/31 10:30:32;;;;;;;9.40;5.77;;;2.20;99.90;;;;;;5033797;28;20229;-73
2020/12/31 10:32:59;;;;;;;12.47;5.60;;;2.20;99.90;;;;;;5031258;28;20329;-72
2020/12/31 10:35:25;;;;;;;10.43;5.50;;;2.20;99.90;;;;;;5022840;28;20207;-72
2020/12/31 10:37:51;;;;;;;17.60;6.37;;;2.10;99.90;;;;;;5021985;28;20611;-72
2020/12/31 10:40:18;;;;;;;12.23;6.50;;;2.20;99.90;;;;;;5022686;28;20203;-72
2020/12/31 10:42:44;;;;;;;10.83;6.57;;;2.20;99.90;;;;;;5018525;28;20227;-72
2020/12/31 10:45:11;;;;;;;13.20;6.67;;;2.10;99.90;;;;;;5025411;28;20644;-72
2020/12/31 10:47:38;;;;;;;9.07;5.00;;;2.10;99.90;;;;;;5021193;28;20608;-72
2020/12/31 10:50:04;;;;;;;13.97;5.93;;;2.10;99.90;;;;;;5014867;28;20929;-72
2020/12/31 10:52:31;;;;;;;12.33;5.93;;;2.10;99.90;;;;;;5018421;28;20739;-71
2020/12/31 10:54:57;;;;;;;12.67;6.50;;;2.10;99.90;;;;;;5018422;28;20200;-72
2020/12/31 10:57:24;;;;;;;9.93;5.80;;;2.10;99.90;;;;;;5020479;28;20226;-73
2020/12/31 10:59:50;;;;;;;10.43;5.70;;;2.10;99.90;;;;;;5017876;28;20298;-73
2020/12/31 11:02:17;;;;;;;11.10;5.87;;;2.10;99.90;;;;;;5020745;28;20395;-72
2020/12/31 11:04:44;;;;;;;10.47;5.83;;;2.20;99.90;;;;;;5022322;28;20211;-72
2020/12/31 11:07:10;;;;;;;11.83;5.73;;;2.20;99.90;;;;;;5022762;28;20207;-72
2020/12/31 11:09:37;;;;;;;9.20;5.17;;;2.20;99.90;;;;;;5026201;28;20246;-73
2020/12/31 11:12:03;;;;;;;10.40;5.97;;;2.20;99.90;;;;;;5020880;28;20233;-72
2020/12/31 11:14:30;;;;;;;9.20;5.13;;;2.20;99.90;;;;;;5022379;28;20207;-72
2020/12/31 11:16:56;;;;;;;11.57;5.87;;;2.10;99.90;;;;;;5023910;28;22083;-73
2020/12/31 11:19:26;;;;;;;10.47;5.60;;;2.10;99.90;;;;;;5020160;28;20204;-72
2020/12/31 11:21:52;;;;;;;9.40;5.57;;;2.20;99.90;;;;;;5022113;28;20227;-72
2020/12/31 11:24:19;;;;;;;11.63;5.23;;;2.30;99.90;;;;;;5030758;28;20286;-72
2020/12/31 11:26:45;;;;;;;10.27;5.50;;;2.30;99.90;;;;;;5028035;28;20214;-72
2020/12/31 11:29:12;;;;;;;10.93;5.47;;;2.30;99.90;;;;;;5027739;28;20703;-72
2020/12/31 11:31:40;;;;;;;8.10;5.10;;;2.40;99.90;;;;;;5023454;28;20231;-73
2020/12/31 11:34:06;;;;;;;11.87;5.97;;;2.40;99.90;;;;;;5022042;28;20737;-72
2020/12/31 11:36:34;;;;;;;9.23;4.97;;;2.40;99.90;;;;;;5021208;28;20211;-72
2020/12/31 11:39:00;;;;;;;8.80;4.97;;;2.50;99.90;;;;;;5027653;28;20853;-72
2020/12/31 11:41:28;;;;;;;8.17;4.70;;;2.40;99.90;;;;;;5029814;28;20233;-72
2020/12/31 11:43:55;;;;;;;6.63;4.13;;;2.50;99.90;;;;;;5023688;28;20963;-71
2020/12/31 11:46:21;;;;;;;7.97;4.40;;;2.50;99.90;;;;;;5018782;28;20215;-73
2020/12/31 11:48:47;;;;;;;6.67;4.27;;;2.50;99.90;;;;;;5018776;28;21444;-73
2020/12/31 11:51:14;;;;;;;7.23;4.00;;;2.60;99.90;;;;;;5015940;28;20321;-73
2020/12/31 11:53:41;;;;;;;7.53;4.47;;;2.60;99.90;;;;;;5017140;28;20214;-72
2020/12/31 11:56:08;;;;;;;7.90;4.20;;;2.60;99.90;;;;;;5015054;28;22241;-73
2020/12/31 11:58:34;;;;;;;7.73;4.43;;;2.60;99.90;;;;;;5024036;28;21322;-72
2020/12/31 12:01:01;;;;;;;9.03;4.63;;;2.50;99.90;;;;;;5022316;28;20277;-72
2020/12/31 12:03:28;;;;;;;7.03;4.17;;;2.60;99.90;;;;;;5014066;28;20215;-73
2020/12/31 12:05:55;;;;;;;6.40;3.93;;;2.60;99.90;;;;;;5012221;28;20229;-72
2020/12/31 12:08:23;;;;;;;6.73;4.10;;;2.60;99.90;;;;;;5012762;28;20288;-72
2020/12/31 12:10:50;;;;;;;5.70;3.70;;;2.50;99.90;;;;;;5015471;28;20229;-73
2020/12/31 12:13:17;;;;;;;7.37;3.77;;;2.50;99.90;;;;;;5014601;28;20649;-72
2020/12/31 12:15:44;;;;;;;7.57;4.20;;;2.50;99.90;;;;;;5017192;28;20209;-73
2020/12/31 12:18:11;;;;;;;7.87;4.80;;;2.50;99.90;;;;;;5016393;28;20253;-73
2020/12/31 12:20:37;;;;;;;11.53;4.40;;;2.50;99.90;;;;;;5015181;28;20236;-70
2020/12/31 12:23:04;;;;;;;7.03;4.43;;;2.50;99.90;;;;;;5012692;28;20601;-71
2020/12/31 12:25:30;;;;;;;7.67;4.60;;;2.60;99.90;;;;;;5014642;28;20628;-71
2020/12/31 12:27:58;;;;;;;8.10;4.00;;;2.50;99.90;;;;;;5018871;28;20224;-70
2020/12/31 12:30:24;;;;;;;11.10;4.67;;;2.50;99.90;;;;;;5009938;28;20237;-70
2020/12/31 12:32:50;;;;;;;6.93;4.13;;;2.60;99.90;;;;;;5019088;28;20594;-71
2020/12/31 12:35:17;;;;;;;10.50;4.77;;;2.60;99.90;;;;;;5022153;28;20207;-71
2020/12/31 12:37:43;;;;;;;7.40;4.50;;;2.60;99.90;;;;;;5096282;23;20703;-74
2020/12/31 12:40:10;;;;;;;9.67;4.40;;;2.60;99.90;;;;;;5048131;28;20275;-73
2020/12/31 12:42:37;;;;;;;9.87;5.20;;;2.60;99.90;;;;;;5043309;28;20202;-74
2020/12/31 12:45:06;;;;;;;8.33;4.17;;;2.60;99.90;;;;;;5054863;28;20323;-74
2020/12/31 12:47:33;;;;;;;6.33;3.77;;;2.70;99.90;;;;;;5059584;28;20282;-75
2020/12/31 12:50:00;;;;;;;7.53;4.33;;;2.70;99.90;;;;;;5057678;28;20202;-74
2020/12/31 12:52:26;;;;;;;5.77;3.53;;;2.70;99.90;;;;;;5050825;28;21373;-75
2020/12/31 12:54:53;;;;;;;5.10;3.30;;;2.70;99.90;;;;;;5048422;28;20215;-74
2020/12/31 12:57:19;;;;;;;6.00;3.20;;;2.60;99.90;;;;;;5039641;28;20208;-75
2020/12/31 12:59:45;;;;;;;6.77;3.93;;;2.50;99.90;;;;;;5044303;28;20700;-74
2020/12/31 13:02:13;;;;;;;7.60;4.63;;;2.50;99.90;;;;;;5041837;28;20226;-73
2020/12/31 13:04:41;;;;;;;10.30;4.03;;;2.50;99.90;;;;;;5048398;28;20332;-74
2020/12/31 13:07:07;;;;;;;11.83;4.33;;;2.50;99.90;;;;;;5040808;28;20207;-73
2020/12/31 13:09:34;;;;;;;7.70;3.10;;;2.50;99.90;;;;;;5048901;28;20317;-74
2020/12/31 13:12:00;;;;;;;4.83;3.20;;;2.50;99.90;;;;;;5054566;28;20230;-74
2020/12/31 13:14:27;;;;;;;7.33;3.97;;;2.50;99.90;;;;;;5058724;28;20289;-74
2020/12/31 13:16:54;;;;;;;6.43;3.70;;;2.50;99.90;;;;;;5063026;28;20335;-75
2020/12/31 13:19:22;;;;;;;6.27;3.83;;;2.40;99.90;;;;;;5061999;28;20203;-73
2020/12/31 13:21:48;;;;;;;9.47;4.03;;;2.40;99.90;;;;;;5056359;28;20233;-75
2020/12/31 13:24:15;;;;;;;5.33;3.10;;;2.40;99.90;;;;;;5060080;28;20222;-75
2020/12/31 13:26:42;;;;;;;5.57;3.50;;;2.40;99.90;;;;;;5043904;28;21102;-76
2020/12/31 13:29:09;;;;;;;7.93;4.03;;;2.30;99.90;;;;;;5051409;28;20230;-76